Red Iron Lake, South Dakota
Current Conditions -  °F | °C
As of 11:35 PM on Thursday 30 Oct 2014 (Local Time) from KGWR Reporting Station
Clear Clear  
Wind Chill: 17°   Ceiling: Unl
Heat Index: 27°   Visibility: 10mi
Dew Point: 19°   Wind: 9mph
Humidity: 74%   Direction: 350°N
Pressure: 30.57"   Gusts: NA
Location:  45.6965°N, 97.3492°W
Report Text: KGWR 310435Z AUTO 35008KT 10SM CLR M03/M07 A3057 RMK A01 P000
Loading
Personal Weather Stations






























Interactive Weather Map
Tropical Storm Tracking
New forecast layout! Learn more

10-Day Weather Forecast

Advertisements
Track Severe Weather on mobile